• Join FlightAware (Why Join?)
  • Login
  • US Flag 
02:35AM EDT


 

Airport Tracker/Info


-or-


 

Live Flight TrackerFlight Track Log ✈ JZA8732 ✈ 19-Apr-2013 ✈ CYUL - CYQB

Flight Track Log - Related Links

Times and Time Zones

All times are in EDT time to prevent confusion due to time zone crossing. See the JZA8732 flight status page for this flight to view local times or setup timezone preferences in your user account.

Time Position Orientation Groundspeed Altitude Reporting Facility
EDT Latitude Longitude Course Direction KTS MPH feet Rate Location/Type
12:55AM 45.4500 -73.7167 35° Northeast 20 23 200  Level Montreal Center
12:58AM 45.5379 -73.6581 25° Northeast  Level FlightAware Approximate
01:00AM 45.4667 -73.7000 25° Northeast 10 12 100  Level Montreal Center
01:01AM 45.4500 -73.7167 215° Southwest 90 104 1,400 1,200 Climbing Montreal Center
01:02AM 45.4167 -73.7667 226° Southwest 110 127 2,500 1,140 Climbing Montreal Center
01:03AM 45.3833 -73.7667 180° South 160 184 3,700 1,380 Climbing Montreal Center
01:04AM 45.3833 -73.6833 90° East 200 230 5,300 1,320 Climbing Montreal Center
01:05AM 45.9280 -72.9726 25° Northeast  Level Estimated
01:05AM 45.4000 -73.6000 74° East 210 242 6,400  Level Montreal Center
01:06AM 45.4500 -73.5500 35° Northeast 230 265 7,800 1,200 Climbing Montreal Center
01:07AM 45.5000 -73.4833 43° Northeast 220 253 8,800 840 Climbing Montreal Center
01:08AM 45.5333 -73.4167 54° Northeast 250 288 9,500 720 Climbing Montreal Center
01:09AM 45.5833 -73.3333 49° Northeast 260 299 10,300 900 Climbing Montreal Center
01:10AM 45.6500 -73.2667 35° Northeast 270 311 11,400 1,080 Climbing Montreal Center
01:11AM 45.6833 -73.1833 60° Northeast 270 311 12,500 780 Climbing Montreal Center
01:12AM 45.7333 -73.0833 54° Northeast 270 311 13,000 240 Climbing Montreal Center
01:13AM 45.8000 -72.9833 46° Northeast 310 357 13,000  Level Montreal Center
01:14AM 45.8500 -72.9167 43° Northeast 310 357 13,000  Level Montreal Center
01:15AM 45.9167 -72.8167 46° Northeast 310 357 13,000  Level Montreal Center
01:16AM 45.9667 -72.7167 54° Northeast 310 357 13,000  Level Montreal Center
01:17AM 46.0333 -72.6167 46° Northeast 310 357 13,000 -60 Level Montreal Center
01:18AM 46.0833 -72.5333 49° Northeast 320 368 12,900 -60 Descending Montreal Center
01:19AM 46.1333 -72.4333 54° Northeast 320 368 12,900  Level Montreal Center
01:20AM 46.2000 -72.3333 46° Northeast 310 357 13,000 -120 Climbing Montreal Center
01:21AM 46.2667 -72.2333 46° Northeast 310 357 12,700 -420 Descending Montreal Center
01:22AM 46.3167 -72.1500 49° Northeast 330 380 12,200 -600 Descending Montreal Center
01:23AM 46.3833 -72.0500 46° Northeast 330 380 11,600 -600 Descending Montreal Center
01:24AM 46.4333 -71.9500 54° Northeast 330 380 11,000 -900 Descending Montreal Center
01:25AM 46.5000 -71.8500 46° Northeast 340 391 9,800 -1,140 Descending Montreal Center
01:26AM 46.5667 -71.7167 54° Northeast 340 391 8,800 -1,020 Descending Montreal Center
01:27AM 46.6167 -71.6167 54° Northeast 330 380 7,800 -1,020 Descending Montreal Center
01:28AM 46.6500 -71.5167 64° Northeast 310 357 6,800 -1,020 Descending Montreal Center
01:30AM 46.7452 -71.4335 46° Northeast  Level Estimated
01:37AM 46.7911 -71.3933 207° Southwest  Level Estimated
01:38AM 46.7911 -71.3933 199° South  Level Estimated
01:39AM 46.7911 -71.3933 199° South  Level Estimated
01:40AM 46.7911 -71.3933 199° South  Level Estimated